Time;durP1;ratioP1;P1;durP2;ratioP2;P2;SDS_P1;SDS_P2;PMS_P1;PMS_P2;Temp;Humidity;BMP_temperature;BMP_pressure;BME280_temperature;BME280_humidity;BME280_pressure;Samples;Min_cycle;Max_cycle;Signal;HPM_P1;HPM_P2
2023/05/31 00:00:23;;;;;;;5.60;2.90;;;;;;;15.58;48.03;99585.02;223760;182;145350;-61
2023/05/31 00:05:46;;;;;;;7.00;2.80;;;;;;;15.45;48.34;99587.57;223696;182;140318;-64
2023/05/31 00:10:49;;;;;;;7.50;3.30;;;;;;;15.33;48.64;99591.99;223791;183;136770;-63
2023/05/31 00:15:53;;;;;;;5.50;3.00;;;;;;;15.22;49.07;99585.11;223769;182;145289;-63
2023/05/31 00:20:56;;;;;;;5.70;3.00;;;;;;;15.14;49.33;99582.14;223798;182;138393;-63
2023/05/31 00:26:00;;;;;;;8.50;3.00;;;;;;;15.07;49.69;99576.91;223747;182;136299;-62
2023/05/31 00:36:43;;;;;;;9.00;3.40;;;;;;;14.95;50.11;99576.20;221528;192;665388;-64
2023/05/31 00:41:46;;;;;;;7.30;3.00;;;;;;;14.87;50.73;99579.98;223765;183;136964;-62
2023/05/31 00:46:50;;;;;;;8.50;3.00;;;;;;;14.81;50.58;99585.42;223654;183;143551;-65
2023/05/31 00:51:54;;;;;;;8.10;3.10;;;;;;;14.78;50.75;99592.96;223876;183;138768;-63
2023/05/31 00:56:57;;;;;;;5.30;3.00;;;;;;;14.72;50.93;99599.41;223708;182;136271;-65
2023/05/31 01:02:03;;;;;;;7.60;3.40;;;;;;;14.63;51.28;99605.20;223750;182;143833;-63
2023/05/31 01:07:08;;;;;;;7.70;3.20;;;;;;;14.53;51.51;99607.71;223866;183;139057;-64
2023/05/31 01:12:47;;;;;;;7.20;2.50;;;;;;;14.43;51.94;99612.64;223854;182;136113;-63
2023/05/31 01:18:00;;;;;;;5.60;2.80;;;;;;;14.31;52.73;99622.56;223757;183;143628;-64
2023/05/31 01:23:30;;;;;;;9.20;3.10;;;;;;;14.18;52.89;99619.90;223848;182;139615;-64
2023/05/31 01:28:37;;;;;;;10.80;3.60;;;;;;;14.08;53.38;99618.96;223820;182;136162;-65
2023/05/31 01:33:41;;;;;;;8.00;3.20;;;;;;;14.00;53.84;99614.48;223763;183;144964;-64
2023/05/31 01:38:45;;;;;;;7.90;3.30;;;;;;;13.91;53.93;99605.98;223723;182;139272;-64
2023/05/31 01:43:49;;;;;;;6.80;3.00;;;;;;;13.85;54.23;99608.20;223744;180;135962;-64
2023/05/31 01:48:53;;;;;;;5.50;3.20;;;;;;;13.80;54.46;99618.33;223787;181;145621;-65
2023/05/31 01:53:57;;;;;;;7.30;3.20;;;;;;;13.75;54.81;99622.38;223792;181;138189;-65
2023/05/31 01:59:08;;;;;;;9.60;3.10;;;;;;;13.69;54.71;99626.20;223819;181;136225;-65
2023/05/31 02:04:11;;;;;;;8.50;3.50;;;;;;;13.65;54.89;99630.39;223807;181;145661;-67
2023/05/31 02:09:15;;;;;;;10.20;3.30;;;;;;;13.62;54.75;99626.29;223839;181;138411;-66
2023/05/31 02:14:18;;;;;;;7.70;2.70;;;;;;;13.62;55.60;99624.52;223815;181;139463;-66
2023/05/31 02:19:25;;;;;;;9.10;3.10;;;;;;;13.57;55.61;99626.06;222780;181;145176;-66
2023/05/31 02:24:28;;;;;;;9.60;3.30;;;;;;;13.50;55.11;99624.20;223737;181;138907;-64
2023/05/31 02:29:32;;;;;;;9.80;3.00;;;;;;;13.41;55.26;99619.61;223833;181;136027;-64
2023/05/31 02:34:36;;;;;;;7.40;3.30;;;;;;;13.36;55.62;99618.38;223761;181;145874;-63
2023/05/31 02:39:39;;;;;;;7.80;3.20;;;;;;;13.31;55.68;99622.05;223850;182;139521;-64
2023/05/31 02:44:42;;;;;;;9.60;3.70;;;;;;;13.25;55.67;99627.94;223837;181;136238;-64
2023/05/31 02:49:45;;;;;;;12.90;3.50;;;;;;;13.20;55.93;99629.69;223884;181;145723;-65
2023/05/31 02:54:50;;;;;;;12.90;3.50;;;;;;;13.14;55.78;99629.70;223845;181;138971;-63
2023/05/31 02:59:58;;;;;;;11.00;4.10;;;;;;;13.11;56.27;99630.77;223866;181;137319;-65
2023/05/31 03:05:03;;;;;;;9.80;3.70;;;;;;;13.06;56.42;99636.07;223656;181;146047;-63
2023/05/31 03:10:08;;;;;;;12.90;3.40;;;;;;;13.02;56.81;99642.73;223791;181;138185;-63
2023/05/31 03:15:12;;;;;;;9.70;3.60;;;;;;;13.01;57.28;99654.71;223742;181;136946;-64
2023/05/31 03:20:17;;;;;;;8.20;3.40;;;;;;;13.02;57.69;99651.10;223745;181;155228;-62
2023/05/31 03:25:21;;;;;;;13.20;3.50;;;;;;;13.03;58.12;99662.80;223723;181;138297;-64
2023/05/31 03:33:35;;;;;;;17.00;4.30;;;;;;;13.12;57.78;99669.38;221469;196;665619;-65
2023/05/31 03:38:39;;;;;;;14.50;4.40;;;;;;;13.14;58.39;99671.39;223824;182;137300;-65
2023/05/31 03:43:42;;;;;;;21.10;4.40;;;;;;;13.21;58.37;99672.20;223786;182;142750;-64
2023/05/31 03:48:46;;;;;;;17.10;4.40;;;;;;;13.29;58.65;99677.23;223771;182;138394;-65
2023/05/31 03:53:49;;;;;;;8.50;3.90;;;;;;;13.39;58.42;99678.24;223850;182;136332;-65
2023/05/31 04:02:28;;;;;;;11.40;3.50;;;;;;;13.60;57.47;99677.56;220154;188;665428;-67
2023/05/31 04:07:32;;;;;;;7.40;2.90;;;;;;;13.71;57.03;99673.12;223799;183;135922;-66
2023/05/31 04:12:36;;;;;;;8.90;3.80;;;;;;;13.81;56.18;99673.55;223710;183;145100;-66
2023/05/31 04:17:39;;;;;;;10.40;3.40;;;;;;;13.89;55.81;99674.45;223704;183;138894;-67
2023/05/31 04:22:44;;;;;;;7.00;3.30;;;;;;;13.98;55.88;99676.91;223806;183;136454;-67
2023/05/31 04:27:49;;;;;;;5.10;3.40;;;;;;;14.06;55.78;99672.48;223668;183;143474;-67
2023/05/31 04:32:57;;;;;;;6.90;3.20;;;;;;;14.14;55.06;99667.80;223671;184;138920;-66
2023/05/31 04:38:07;;;;;;;7.10;3.00;;;;;;;14.28;55.18;99670.83;223775;183;136972;-64
2023/05/31 04:43:10;;;;;;;188.30;128.70;;;;;;;14.45;55.42;99673.43;223637;183;143562;-67
2023/05/31 04:48:15;;;;;;;9.30;4.30;;;;;;;14.64;54.86;99676.10;223576;183;138440;-67
2023/05/31 04:53:18;;;;;;;24.90;16.10;;;;;;;14.79;54.06;99672.92;223742;183;136231;-66
2023/05/31 04:58:22;;;;;;;9.10;4.30;;;;;;;14.97;53.80;99676.98;223650;183;145445;-66
2023/05/31 05:03:26;;;;;;;9.50;3.40;;;;;;;15.10;53.00;99680.92;223658;183;138584;-67
2023/05/31 05:08:33;;;;;;;6.10;3.00;;;;;;;15.19;52.85;99684.20;223729;182;137572;-70
2023/05/31 05:13:37;;;;;;;176.70;120.90;;;;;;;15.29;52.98;99686.34;223711;183;145035;-66
2023/05/31 05:18:40;;;;;;;11.00;5.80;;;;;;;15.43;52.14;99681.95;223808;182;138888;-67
2023/05/31 05:23:44;;;;;;;50.10;31.80;;;;;;;15.56;52.18;99683.16;223780;182;136522;-67
2023/05/31 05:33:30;;;;;;;9.20;3.20;;;;;;;15.87;51.32;99684.37;220451;193;665528;-67
2023/05/31 05:38:34;;;;;;;6.80;3.20;;;;;;;15.93;51.10;99676.35;224017;180;136101;-65
2023/05/31 05:43:41;;;;;;;12.70;3.80;;;;;;;16.02;50.92;99676.62;224049;180;143552;-64
2023/05/31 05:48:47;;;;;;;10.00;3.40;;;;;;;16.09;51.15;99676.07;223897;180;138966;-67
2023/05/31 05:53:52;;;;;;;11.60;4.10;;;;;;;16.17;50.85;99678.13;224042;180;137333;-68
2023/05/31 05:59:03;;;;;;;129.00;100.60;;;;;;;16.27;50.77;99684.41;223976;182;143698;-67
2023/05/31 06:04:24;;;;;;;36.60;18.00;;;;;;;16.44;50.86;99689.73;224017;180;138477;-64
2023/05/31 06:09:28;;;;;;;11.40;4.10;;;;;;;16.60;50.74;99686.70;224008;180;136939;-63
2023/05/31 06:14:31;;;;;;;17.20;3.70;;;;;;;16.67;50.51;99686.05;224036;180;143496;-64
2023/05/31 06:19:35;;;;;;;12.00;3.30;;;;;;;16.72;50.41;99682.23;224054;180;138734;-66
2023/05/31 06:24:40;;;;;;;13.30;4.10;;;;;;;16.79;50.45;99675.45;223910;180;136986;-64
2023/05/31 06:33:30;;;;;;;11.30;3.80;;;;;;;17.02;50.84;99673.14;220697;193;666641;-65
2023/05/31 06:38:33;;;;;;;19.70;5.60;;;;;;;17.06;50.25;99673.52;223496;185;136146;-63
2023/05/31 06:43:38;;;;;;;13.90;7.40;;;;;;;17.15;49.09;99677.66;223964;180;143451;-66
2023/05/31 06:49:02;;;;;;;12.70;5.60;;;;;;;17.26;48.82;99675.53;224051;181;140759;-66
2023/05/31 06:54:27;;;;;;;21.90;7.40;;;;;;;17.32;48.04;99680.64;223872;181;136415;-62
2023/05/31 06:59:32;;;;;;;20.50;5.90;;;;;;;17.40;47.59;99680.70;223817;180;144602;-61
2023/05/31 07:04:35;;;;;;;14.60;5.00;;;;;;;17.49;47.35;99680.67;223818;181;138680;-64
2023/05/31 07:09:38;;;;;;;23.00;6.70;;;;;;;17.55;48.03;99681.15;223888;180;136490;-63
2023/05/31 07:14:42;;;;;;;79.10;46.50;;;;;;;17.62;47.62;99685.14;223842;181;143729;-64
2023/05/31 07:19:48;;;;;;;28.80;17.30;;;;;;;17.72;47.85;99680.27;223836;181;139587;-64
2023/05/31 07:24:52;;;;;;;20.80;6.00;;;;;;;17.82;47.40;99677.32;223810;181;136849;-64
2023/05/31 07:29:56;;;;;;;14.90;5.50;;;;;;;17.84;47.82;99675.70;223807;181;145122;-64
2023/05/31 07:34:59;;;;;;;12.90;4.30;;;;;;;17.88;47.61;99666.38;223771;182;138492;-62
2023/05/31 07:40:09;;;;;;;12.40;4.30;;;;;;;17.93;47.50;99665.46;223760;181;136626;-63
2023/05/31 07:45:12;;;;;;;37.50;20.70;;;;;;;18.04;48.20;99665.81;223841;181;145220;-62
2023/05/31 07:50:16;;;;;;;12.70;3.80;;;;;;;18.18;47.17;99665.20;223686;180;140141;-67
2023/05/31 07:55:19;;;;;;;43.00;30.20;;;;;;;18.31;47.14;99657.96;223755;181;136757;-63
2023/05/31 08:00:23;;;;;;;23.00;16.50;;;;;;;18.48;47.46;99654.52;223836;181;145143;-63
2023/05/31 08:05:29;;;;;;;13.20;3.50;;;;;;;18.58;47.20;99657.44;223826;181;138396;-64
2023/05/31 08:10:32;;;;;;;11.10;3.20;;;;;;;18.61;47.33;99656.69;223725;181;136972;-62
2023/05/31 08:15:36;;;;;;;8.30;2.70;;;;;;;18.63;46.60;99655.23;223756;181;145784;-64
2023/05/31 08:20:41;;;;;;;6.40;2.70;;;;;;;18.67;46.05;99648.92;223784;181;138245;-63
2023/05/31 08:25:48;;;;;;;7.10;2.90;;;;;;;18.72;44.97;99646.79;223772;181;136794;-63
2023/05/31 08:30:51;;;;;;;52.00;39.60;;;;;;;18.82;45.15;99641.95;223677;181;148039;-64
2023/05/31 08:35:59;;;;;;;22.20;12.80;;;;;;;19.00;51.36;99642.95;223727;181;139804;-64
2023/05/31 08:41:03;;;;;;;18.00;10.50;;;;;;;19.31;53.34;99643.79;223774;182;137613;-65
2023/05/31 08:46:07;;;;;;;13.00;5.80;;;;;;;19.55;51.18;99641.27;223823;182;145895;-65
2023/05/31 08:51:13;;;;;;;17.90;12.50;;;;;;;19.75;50.25;99640.23;223741;181;138782;-65
2023/05/31 08:56:18;;;;;;;14.80;6.40;;;;;;;19.88;51.10;99639.75;223696;182;137031;-63
2023/05/31 09:01:22;;;;;;;;;;;;;;;20.00;49.70;99636.85;223766;181;145209;-62
2023/05/31 09:06:25;;;;;;;8.10;3.80;;;;;;;20.05;46.55;99640.33;223790;182;138811;-63
2023/05/31 09:11:29;;;;;;;10.20;3.30;;;;;;;20.12;46.76;99639.00;223802;181;136688;-62
2023/05/31 09:16:32;;;;;;;7.10;2.60;;;;;;;20.22;46.06;99631.92;223702;182;145763;-64
2023/05/31 09:21:45;;;;;;;7.00;3.30;;;;;;;20.32;47.25;99632.32;223798;181;139216;-64
2023/05/31 09:26:51;;;;;;;16.80;8.20;;;;;;;20.47;46.83;99636.13;223748;181;138677;-64
2023/05/31 09:32:11;;;;;;;9.70;6.60;;;;;;;20.61;46.88;99632.63;223785;181;145339;-64
2023/05/31 09:37:25;;;;;;;8.20;3.60;;;;;;;20.79;44.90;99630.95;223749;181;138508;-63
2023/05/31 09:42:29;;;;;;;6.50;4.50;;;;;;;20.95;44.53;99628.00;223475;181;136322;-63
2023/05/31 09:47:32;;;;;;;4.10;2.90;;;;;;;21.13;43.96;99621.23;223716;181;147357;-64
2023/05/31 09:52:38;;;;;;;5.20;2.80;;;;;;;21.27;43.08;99623.46;223703;181;138987;-63
2023/05/31 09:57:43;;;;;;;7.60;2.40;;;;;;;21.43;42.47;99617.41;223724;181;137410;-63
2023/05/31 10:02:48;;;;;;;7.40;2.30;;;;;;;21.58;40.70;99615.93;223669;181;145121;-62
2023/05/31 10:07:52;;;;;;;;;;;;;;;21.72;39.04;99606.75;223610;182;138534;-62
2023/05/31 10:13:02;;;;;;;6.30;2.50;;;;;;;21.79;40.34;99603.34;223670;181;129156;-62
2023/05/31 10:18:14;;;;;;;7.20;2.30;;;;;;;21.67;41.51;99596.60;223780;181;145099;-64
2023/05/31 10:23:21;;;;;;;11.40;5.20;;;;;;;21.90;40.79;99584.79;223714;181;138855;-65
2023/05/31 10:28:31;;;;;;;7.00;2.40;;;;;;;22.23;40.07;99579.77;223698;181;137207;-64
2023/05/31 10:33:34;;;;;;;8.10;3.30;;;;;;;22.43;39.26;99574.16;223729;181;145586;-64
2023/05/31 10:38:52;;;;;;;5.60;2.10;;;;;;;22.50;38.58;99570.32;223839;181;138722;-65
2023/05/31 10:44:02;;;;;;;8.20;2.30;;;;;;;22.63;37.89;99566.64;223559;181;136715;-65
2023/05/31 10:49:10;;;;;;;4.00;1.90;;;;;;;22.86;37.86;99566.08;223731;181;145455;-64
2023/05/31 10:54:18;;;;;;;8.20;2.40;;;;;;;23.09;37.47;99561.66;223690;181;139612;-64
2023/05/31 10:59:22;;;;;;;5.00;2.20;;;;;;;23.34;37.29;99559.73;223739;177;136788;-65
2023/05/31 11:04:26;;;;;;;11.80;2.50;;;;;;;23.46;36.65;99555.60;223743;181;145064;-64
2023/05/31 11:09:31;;;;;;;6.70;2.20;;;;;;;23.48;36.49;99554.41;223759;181;138621;-64
2023/05/31 11:14:34;;;;;;;5.70;2.00;;;;;;;23.61;36.01;99550.46;223672;181;137576;-65
2023/05/31 11:19:38;;;;;;;5.20;2.10;;;;;;;23.79;34.97;99544.67;223841;182;145794;-64
2023/05/31 11:24:52;;;;;;;5.20;2.10;;;;;;;23.88;33.84;99539.75;223829;181;138546;-64
2023/05/31 11:29:56;;;;;;;5.60;2.20;;;;;;;24.08;33.73;99531.27;223825;181;136909;-64
2023/05/31 11:35:06;;;;;;;7.20;2.00;;;;;;;24.25;34.64;99523.65;223730;181;145381;-64
2023/05/31 11:40:15;;;;;;;6.00;2.10;;;;;;;24.38;34.13;99516.40;223707;181;140875;-64
2023/05/31 11:45:25;;;;;;;3.60;1.90;;;;;;;24.54;34.06;99513.58;223846;181;137750;-64
2023/05/31 11:50:30;;;;;;;4.90;1.90;;;;;;;24.62;33.73;99514.91;223840;181;145724;-64
2023/05/31 11:55:36;;;;;;;5.70;2.20;;;;;;;24.81;32.93;99507.40;223730;181;138271;-64
2023/05/31 12:00:44;;;;;;;9.10;2.20;;;;;;;25.05;32.94;99504.73;223830;181;136676;-64
2023/05/31 12:05:56;;;;;;;4.10;1.90;;;;;;;25.18;32.85;99506.09;223821;181;145374;-64
2023/05/31 12:11:03;;;;;;;5.90;2.10;;;;;;;25.36;32.53;99503.96;223828;181;138390;-64
2023/05/31 12:16:06;;;;;;;5.20;2.60;;;;;;;25.51;32.53;99500.98;223637;181;136400;-63
2023/05/31 12:21:17;;;;;;;83.20;64.90;;;;;;;25.64;31.47;99486.20;223679;181;146340;-65
2023/05/31 12:26:21;;;;;;;9.30;2.80;;;;;;;25.83;31.02;99477.46;223710;181;138020;-64
2023/05/31 12:33:34;;;;;;;8.30;4.40;;;;;;;26.25;31.18;99474.63;221981;192;666736;-65
2023/05/31 12:38:38;;;;;;;12.40;4.10;;;;;;;26.47;31.15;99472.60;223650;183;136556;-65
2023/05/31 12:43:42;;;;;;;4.80;2.40;;;;;;;26.61;31.20;99470.21;223571;183;143362;-65
2023/05/31 12:48:47;;;;;;;10.30;2.10;;;;;;;26.64;29.86;99472.23;223563;184;138492;-64
2023/05/31 12:53:50;;;;;;;8.40;2.70;;;;;;;26.57;30.48;99464.52;223620;183;136052;-66
2023/05/31 12:58:54;;;;;;;8.30;2.50;;;;;;;26.81;30.89;99460.66;223682;183;144151;-65
2023/05/31 13:03:57;;;;;;;5.20;2.20;;;;;;;26.94;30.67;99452.11;223745;183;138964;-65
2023/05/31 13:09:04;;;;;;;9.80;2.50;;;;;;;26.91;30.72;99459.40;223635;183;136426;-65
2023/05/31 13:14:09;;;;;;;5.10;2.10;;;;;;;27.01;30.56;99454.88;223701;182;144050;-64
2023/05/31 13:19:12;;;;;;;4.50;2.10;;;;;;;27.09;30.33;99450.61;223856;183;138996;-65
2023/05/31 13:24:16;;;;;;;4.70;2.00;;;;;;;27.24;30.23;99442.52;223783;182;137098;-65
2023/05/31 13:29:21;;;;;;;9.00;2.20;;;;;;;27.45;30.41;99431.34;223718;183;145327;-65
2023/05/31 13:34:25;;;;;;;4.70;2.00;;;;;;;27.62;30.27;99430.60;223625;183;138841;-65
2023/05/31 13:39:29;;;;;;;8.30;2.50;;;;;;;27.72;29.98;99431.02;223695;183;138857;-65
2023/05/31 13:44:32;;;;;;;5.40;2.00;;;;;;;27.76;29.76;99423.96;223527;183;145028;-65
2023/05/31 13:49:35;;;;;;;9.60;2.10;;;;;;;27.86;29.61;99418.52;223702;183;139604;-65
2023/05/31 13:54:39;;;;;;;8.10;2.20;;;;;;;28.00;28.70;99410.45;223705;183;137190;-64
2023/05/31 13:59:42;;;;;;;8.20;2.00;;;;;;;28.02;29.02;99406.88;223712;183;145334;-64
2023/05/31 14:04:45;;;;;;;3.70;1.70;;;;;;;28.00;29.01;99401.45;223672;183;138225;-65
2023/05/31 14:09:48;;;;;;;6.10;1.80;;;;;;;28.00;29.23;99395.39;223669;183;136380;-65
2023/05/31 14:14:51;;;;;;;3.90;1.70;;;;;;;27.84;28.52;99395.89;223695;183;145832;-65
2023/05/31 14:19:57;;;;;;;5.40;1.60;;;;;;;27.51;28.18;99398.55;223581;183;138431;-64
2023/05/31 14:25:01;;;;;;;5.10;1.80;;;;;;;27.27;28.86;99395.50;223765;183;137253;-63
2023/05/31 14:30:04;;;;;;;3.60;2.00;;;;;;;27.09;29.16;99389.40;223665;183;145163;-65
2023/05/31 14:35:10;;;;;;;6.90;1.90;;;;;;;26.85;29.72;99390.41;223677;183;139316;-65
2023/05/31 14:40:13;;;;;;;4.50;1.90;;;;;;;26.61;30.01;99390.81;223596;183;136624;-65
2023/05/31 14:45:17;;;;;;;3.70;2.10;;;;;;;26.34;30.24;99388.28;223633;183;145225;-65
2023/05/31 17:05:41;;;;;;;4.30;1.90;;;;;;;22.86;35.10;99299.71;221692;194;666788;-64
2023/05/31 17:10:46;;;;;;;;;;;;;;;22.79;35.02;99300.31;223833;183;136546;-63
2023/05/31 17:15:50;;;;;;;7.80;4.20;;;;;;;22.76;35.73;99301.86;223740;183;143953;-63
2023/05/31 17:20:53;;;;;;;69.80;53.50;;;;;;;22.65;36.31;99303.23;223602;184;139682;-64
2023/05/31 17:25:56;;;;;;;20.70;11.20;;;;;;;22.61;36.57;99297.33;223672;183;136608;-64
2023/05/31 17:30:59;;;;;;;6.70;2.70;;;;;;;22.62;36.41;99288.14;223668;183;143323;-65
2023/05/31 17:36:03;;;;;;;13.00;9.90;;;;;;;22.65;36.21;99284.26;223700;183;138289;-64
2023/05/31 17:41:06;;;;;;;13.70;7.30;;;;;;;22.65;36.19;99284.43;223803;183;139693;-64
2023/05/31 17:46:09;;;;;;;436.30;376.70;;;;;;;22.59;35.81;99274.89;223676;183;143696;-63
2023/05/31 17:51:19;;;;;;;40.70;30.40;;;;;;;22.56;36.42;99270.05;223612;183;138361;-64
2023/05/31 17:56:32;;;;;;;9.40;4.20;;;;;;;22.54;36.74;99269.22;223828;183;139628;-63
2023/05/31 18:01:39;;;;;;;10.10;4.60;;;;;;;22.46;36.80;99270.23;223612;182;145996;-64
2023/05/31 18:06:43;;;;;;;9.50;6.20;;;;;;;22.36;36.92;99272.88;223722;183;138807;-64
2023/05/31 18:11:46;;;;;;;9.70;5.50;;;;;;;22.27;37.82;99267.59;223718;181;136832;-66
2023/05/31 18:16:49;;;;;;;7.60;3.90;;;;;;;22.12;37.91;99265.02;223762;182;145367;-64
2023/05/31 18:21:53;;;;;;;8.90;4.10;;;;;;;21.98;37.75;99270.13;223663;181;139781;-64
2023/05/31 18:27:31;;;;;;;8.10;2.70;;;;;;;21.84;37.66;99266.33;223673;182;137189;-65
2023/05/31 18:32:35;;;;;;;7.30;3.30;;;;;;;21.69;37.87;99260.83;223689;182;145340;-64
2023/05/31 18:37:38;;;;;;;8.90;3.30;;;;;;;21.58;38.22;99264.59;223694;182;139776;-65
2023/05/31 18:42:42;;;;;;;11.40;3.00;;;;;;;21.47;39.54;99260.97;223722;182;136843;-65
2023/05/31 18:47:46;;;;;;;7.30;3.50;;;;;;;21.39;40.32;99263.28;223686;182;145354;-64
2023/05/31 19:33:46;;;;;;;12.20;4.50;;;;;;;19.96;45.58;99286.91;221334;189;668011;-66
2023/05/31 19:38:50;;;;;;;17.60;4.70;;;;;;;19.76;46.42;99284.17;223430;183;137244;-66
2023/05/31 19:43:53;;;;;;;12.70;5.40;;;;;;;19.59;47.12;99286.65;223770;182;143739;-67
2023/05/31 19:48:56;;;;;;;19.20;5.40;;;;;;;19.42;47.65;99282.85;223711;183;138595;-65
2023/05/31 19:54:00;;;;;;;15.10;5.20;;;;;;;19.25;48.16;99279.08;221787;182;136697;-66
2023/05/31 19:59:03;;;;;;;11.70;4.80;;;;;;;19.12;48.47;99277.27;223822;182;146235;-66
2023/05/31 20:04:08;;;;;;;16.40;4.70;;;;;;;18.99;48.94;99279.77;223773;183;139306;-68
2023/05/31 20:09:11;;;;;;;11.10;4.10;;;;;;;18.88;49.49;99285.27;223829;183;136753;-66
2023/05/31 20:14:15;;;;;;;19.40;6.80;;;;;;;18.77;49.90;99280.38;223841;182;144670;-66
2023/05/31 20:19:18;;;;;;;15.10;5.70;;;;;;;18.63;50.38;99281.71;223803;182;138761;-65
2023/05/31 20:24:21;;;;;;;19.90;7.00;;;;;;;18.53;50.93;99278.61;223755;182;137221;-65
2023/05/31 20:29:25;;;;;;;11.70;5.40;;;;;;;18.41;51.66;99280.89;223739;182;145690;-67
2023/05/31 20:34:28;;;;;;;15.90;6.00;;;;;;;18.30;52.24;99279.58;223629;183;139409;-65
2023/05/31 20:39:31;;;;;;;25.10;5.90;;;;;;;18.19;52.57;99280.52;223614;183;137944;-66
2023/05/31 20:44:36;;;;;;;16.70;5.50;;;;;;;18.08;53.05;99279.23;223733;181;145977;-65
2023/05/31 20:49:39;;;;;;;18.80;5.60;;;;;;;17.94;53.71;99280.77;223757;181;139398;-67
2023/05/31 20:54:43;;;;;;;12.20;5.80;;;;;;;17.84;54.26;99281.02;223760;181;136976;-65
2023/05/31 20:59:46;;;;;;;17.80;6.00;;;;;;;17.72;54.40;99278.35;223692;181;144969;-66
2023/05/31 21:04:49;;;;;;;16.00;5.60;;;;;;;17.64;54.73;99282.11;223738;182;138148;-68
2023/05/31 21:09:54;;;;;;;13.30;5.70;;;;;;;17.55;55.02;99283.34;223832;182;136800;-65
2023/05/31 21:14:58;;;;;;;20.60;5.90;;;;;;;17.42;55.55;99284.23;223764;181;145927;-67
2023/05/31 21:20:01;;;;;;;16.60;6.40;;;;;;;17.30;55.68;99285.45;223796;181;139808;-65
2023/05/31 21:25:05;;;;;;;15.20;5.90;;;;;;;17.22;55.81;99287.79;223792;182;137638;-66
2023/05/31 21:33:30;;;;;;;16.00;6.00;;;;;;;17.07;56.58;99283.47;221397;193;665825;-66
2023/05/31 21:38:33;;;;;;;10.70;5.20;;;;;;;16.96;57.26;99282.13;223395;185;137369;-65
2023/05/31 21:43:36;;;;;;;11.70;6.20;;;;;;;16.86;57.60;99279.94;223761;182;143479;-68
2023/05/31 21:48:39;;;;;;;20.60;6.60;;;;;;;16.75;57.84;99277.60;223773;182;138790;-66
2023/05/31 21:53:43;;;;;;;14.40;6.40;;;;;;;16.67;58.06;99280.20;223747;182;136026;-65
2023/05/31 21:58:46;;;;;;;14.00;6.00;;;;;;;16.62;58.37;99280.95;223833;182;143968;-66
2023/05/31 22:03:50;;;;;;;12.00;5.60;;;;;;;16.55;58.61;99280.48;223640;182;138707;-65
2023/05/31 22:08:53;;;;;;;12.40;6.10;;;;;;;16.45;58.84;99280.92;223791;182;137015;-65
2023/05/31 22:14:10;;;;;;;18.10;6.40;;;;;;;16.37;59.05;99283.08;223855;182;144974;-66
2023/05/31 22:19:24;;;;;;;14.70;6.20;;;;;;;16.29;59.30;99282.58;223580;182;138411;-64
2023/05/31 22:24:42;;;;;;;16.80;6.30;;;;;;;16.23;59.51;99286.54;223687;182;136768;-66
2023/05/31 22:33:31;;;;;;;14.90;5.70;;;;;;;16.11;60.03;99285.85;220626;193;666122;-66
2023/05/31 22:38:34;;;;;;;21.30;6.10;;;;;;;16.01;60.08;99282.21;223271;186;136128;-66
2023/05/31 22:43:37;;;;;;;10.90;6.10;;;;;;;15.95;60.21;99288.23;223523;183;143338;-67
2023/05/31 22:48:40;;;;;;;14.40;5.70;;;;;;;15.90;60.43;99289.37;223582;183;139647;-66
2023/05/31 22:53:44;;;;;;;13.00;6.10;;;;;;;15.81;60.60;99291.85;223566;184;136385;-65
2023/05/31 22:58:47;;;;;;;12.70;6.10;;;;;;;15.73;60.79;99289.44;223583;183;143371;-66
2023/05/31 23:03:51;;;;;;;11.50;6.20;;;;;;;15.65;60.98;99290.46;223774;182;138327;-66
2023/05/31 23:08:54;;;;;;;16.80;5.90;;;;;;;15.57;61.08;99289.42;223745;182;136001;-67
2023/05/31 23:13:59;;;;;;;14.00;6.00;;;;;;;15.48;61.31;99286.36;223714;182;143435;-66
2023/05/31 23:19:05;;;;;;;9.90;5.80;;;;;;;15.41;61.27;99282.98;223804;182;139899;-68
2023/05/31 23:24:08;;;;;;;10.10;6.30;;;;;;;15.33;61.41;99282.55;223775;182;136003;-65
2023/05/31 23:33:40;;;;;;;12.30;6.20;;;;;;;15.22;61.59;99272.13;222593;189;666314;-65
2023/05/31 23:38:44;;;;;;;12.40;6.20;;;;;;;15.12;61.76;99267.33;223859;182;138604;-65
2023/05/31 23:43:47;;;;;;;14.80;5.90;;;;;;;15.07;62.09;99265.77;223745;184;143400;-64
2023/05/31 23:48:51;;;;;;;14.00;6.00;;;;;;;15.01;62.16;99268.06;223812;183;138884;-64
2023/05/31 23:53:54;;;;;;;9.70;5.50;;;;;;;14.94;62.03;99260.89;223928;182;137013;-66
2023/05/31 23:58:57;;;;;;;11.80;5.20;;;;;;;14.88;62.26;99259.23;223889;181;143238;-64
